Latest METARs, TAFs and NOTAMs for ETSI


---------------------------------------------------------------------------
	(OBSERVATIONS)
ETSI 231020Z 08004KT 9999 FEW035TCU 19/09 Q1019 BLU+BLU+=
ETSI 230920Z 06003KT 9999 FEW032TCU 17/09 Q1020 BLU+BLU+=
ETSI 230820Z 35002KT 9999 FEW028 16/10 Q1020 BLU+BLU+=
---------------------------------------------------------------------------
	(FC)
TAF ETSI 221307Z 2214/2223 VRB03KT 9999 NSW FEW030
          PROB30 2214/2218 25012G22KT 3000 TSRA SCT015 BKN025CB=
---------------------------------------------------------------------------
	(TERMINAL AREA FORECAST)
ETSI 230723Z 2308/2317 06003KT 9999 NSW FEW030 PROB30
    2312/2317
    VRB12G22KT 3000 TSRA FEW015 BKN030CB=
---------------------------------------------------------------------------
	(NOTAMS)


ETSI P1176/14 AD ETSI: LVTO-PROCEDURE SUSPENDED. 27 FEB 07:54
    2014 UNTIL 23 MAY 12:00 2014. CREATED: 27 FEB 07:58 2014

ETSI P1179/14 AD ETSI: NO SRA POSSIBLE. 27 FEB 08:07 2014 UNTIL
    23 MAY 12:00 2014. CREATED: 27 FEB 08:12 2014

ETSI P1180/14 AD ETSI: PAR RWY25R/07L OUT OF SERVICE. 27 FEB
    08:10 2014 UNTIL 23 MAY 12:00 2014. CREATED: 27 FEB 08:13
    2014

ETSI P2324/14 AD ETSI: RWY25R/07L VFR ONLY. 16 APR 12:48 2014
    UNTIL 11 JUL 12:00 2014. CREATED: 16 APR 12:53 2014

ETSI P2436/14 AD ETSI: ILS RWY25L ON TEST, DISREGARD ALL SIGNALS.
    22 APR 11:27 2014 UNTIL 16 MAY 12:00 2014. CREATED: 22 APR
    11:35 2014

---------------------------------------------------------------------------